< < Back
Terminal Aerodrome Forecast


Current Version              Previous Versions:   1  2  3  4  5  6  7  8  9  

Terminal Aerodrome Forecast

114
FTUS42 KCHS 182300
TAFCHS
TAF
KCHS 182320Z 1900/1924 VRB03KT P6SM SCT250=



Latest METAR

845
SAUS80 KWBC 191400 CCA
MTRCHS
METAR KCHS 191356Z 00000KT 7SM FEW150 BKN200 09/07 A3016 RMK AO2 SLP212
T00940072


USA.gov is the U.S. government's official web portal to all federal, state and local government web resources and services.